Time,TemperatureF,DewpointF,PressureIn,WindDirection,WindDirectionDegrees,WindSpeedMPH,WindSpeedGustMPH,Humidity,HourlyPrecipIn,Conditions,Clouds,dailyrainin,SoftwareType,DateUTC
2013-02-23 00:01:00,12.0,9.0,-100.00,West,280,9.0,10.0,87,0.00,,,-99.99,,2013-02-23 06:01:00,
2013-02-23 00:11:00,12.0,10.0,-100.00,WNW,290,9.0,10.0,88,0.00,,,-99.99,,2013-02-23 06:11:00,
2013-02-23 00:22:00,13.0,10.0,-100.00,West,280,9.0,12.0,88,0.00,,,-99.99,,2013-02-23 06:22:00,
2013-02-23 00:31:00,13.0,10.0,-100.00,WNW,290,9.0,11.0,88,0.00,,,-99.99,,2013-02-23 06:31:00,
2013-02-23 00:41:00,13.0,10.0,-100.00,WNW,290,9.0,11.0,88,0.00,,,-99.99,,2013-02-23 06:41:00,
2013-02-23 00:51:00,13.0,10.0,-100.00,West,280,7.0,10.0,88,0.00,,,-99.99,,2013-02-23 06:51:00,
2013-02-23 01:01:00,13.0,10.0,-100.00,West,280,7.0,10.0,88,0.00,,,-99.99,,2013-02-23 07:01:00,
2013-02-23 01:11:00,13.0,11.0,-100.00,West,270,8.0,9.0,89,0.00,,,-99.99,,2013-02-23 07:11:00,
2013-02-23 01:21:00,11.0,9.0,-100.00,West,270,6.0,9.0,89,0.00,,,-99.99,,2013-02-23 07:21:00,
2013-02-23 01:32:00,13.0,10.0,-100.00,WNW,290,7.0,9.0,89,0.00,,,-99.99,,2013-02-23 07:32:00,
2013-02-23 01:41:00,13.0,10.0,-100.00,WNW,290,7.0,9.0,89,0.00,,,-99.99,,2013-02-23 07:41:00,
2013-02-23 01:51:00,12.0,10.0,-100.00,WNW,285,7.0,11.0,89,0.00,,,-99.99,,2013-02-23 07:51:00,
2013-02-23 02:01:00,12.0,10.0,-100.00,WNW,285,7.0,11.0,89,0.00,,,-99.99,,2013-02-23 08:01:00,
2013-02-23 02:11:00,12.0,10.0,-100.00,West,280,9.0,10.0,89,0.00,,,-99.99,,2013-02-23 08:11:00,
2013-02-23 02:21:00,12.0,10.0,-100.00,WNW,285,9.0,10.0,89,0.00,,,-99.99,,2013-02-23 08:21:00,
2013-02-23 02:31:00,11.0,9.0,-100.00,West,265,7.0,8.0,89,0.00,,,-99.99,,2013-02-23 08:31:00,
2013-02-23 02:41:00,11.0,9.0,-100.00,West,265,7.0,8.0,89,0.00,,,-99.99,,2013-02-23 08:41:00,
2013-02-23 02:52:00,6.0,4.0,-100.00,West,260,9.0,9.0,88,0.00,,,-99.99,,2013-02-23 08:52:00,
2013-02-23 03:01:00,6.0,4.0,-100.00,West,260,9.0,9.0,88,0.00,,,-99.99,,2013-02-23 09:01:00,
2013-02-23 03:11:00,7.0,4.0,-100.00,West,275,6.0,9.0,88,0.00,,,-99.99,,2013-02-23 09:11:00,
2013-02-23 03:21:00,9.0,6.0,-100.00,WNW,290,7.0,9.0,88,0.00,,,-99.99,,2013-02-23 09:21:00,
2013-02-23 03:31:00,3.0,0.0,-100.00,WSW,250,7.0,7.0,87,0.00,,,-99.99,,2013-02-23 09:31:00,
2013-02-23 03:41:00,3.0,0.0,-100.00,WSW,250,7.0,7.0,87,0.00,,,-99.99,,2013-02-23 09:41:00,
2013-02-23 03:51:00,2.0,-1.0,-100.00,WSW,245,5.0,8.0,87,0.00,,,-99.99,,2013-02-23 09:51:00,
2013-02-23 04:01:00,2.0,-1.0,-100.00,WSW,245,5.0,8.0,87,0.00,,,-99.99,,2013-02-23 10:01:00,
2013-02-23 04:11:00,3.0,0.0,-100.00,WSW,250,6.0,7.0,87,0.00,,,-99.99,,2013-02-23 10:11:00,
2013-02-23 04:21:00,3.0,0.0,-100.00,WSW,255,7.0,7.0,87,0.00,,,-99.99,,2013-02-23 10:21:00,
2013-02-23 04:31:00,4.0,1.0,-100.00,West,260,7.0,7.0,87,0.00,,,-99.99,,2013-02-23 10:31:00,
2013-02-23 04:41:00,4.0,1.0,-100.00,West,260,7.0,7.0,87,0.00,,,-99.99,,2013-02-23 10:41:00,
2013-02-23 04:51:00,5.0,2.0,-100.00,West,270,7.0,9.0,87,0.00,,,-99.99,,2013-02-23 10:51:00,
2013-02-23 05:02:00,5.0,2.0,-100.00,West,265,6.0,7.0,87,0.00,,,-99.99,,2013-02-23 11:02:00,
2013-02-23 05:11:00,8.0,6.0,-100.00,NW,315,2.0,6.0,87,0.00,,,-99.99,,2013-02-23 11:11:00,
2013-02-23 05:21:00,8.0,5.0,-100.00,WNW,300,3.0,6.0,87,0.00,,,-99.99,,2013-02-23 11:21:00,
2013-02-23 05:32:00,6.0,3.0,-100.00,West,260,2.0,3.0,87,0.00,,,-99.99,,2013-02-23 11:32:00,
2013-02-23 05:41:00,6.0,3.0,-100.00,West,260,2.0,3.0,87,0.00,,,-99.99,,2013-02-23 11:41:00,
2013-02-23 05:52:00,4.0,2.0,-100.00,SW,235,2.0,3.0,87,0.00,,,-99.99,,2013-02-23 11:52:00,
2013-02-23 06:02:00,4.0,2.0,-100.00,SW,235,2.0,3.0,87,0.00,,,-99.99,,2013-02-23 12:02:00,
2013-02-23 06:11:00,2.0,-1.0,-100.00,WSW,245,4.0,5.0,87,0.00,,,-99.99,,2013-02-23 12:11:00,
2013-02-23 06:21:00,2.0,0.0,-100.00,West,270,3.0,4.0,87,0.00,,,-99.99,,2013-02-23 12:21:00,
2013-02-23 06:32:00,2.0,-1.0,-100.00,WSW,245,3.0,4.0,87,0.00,,,-99.99,,2013-02-23 12:32:00,
2013-02-23 06:42:00,2.0,-1.0,-100.00,WSW,245,3.0,4.0,87,0.00,,,-99.99,,2013-02-23 12:42:00,
2013-02-23 06:52:00,3.0,0.0,-100.00,West,260,1.0,3.0,87,0.00,,,-99.99,,2013-02-23 12:52:00,
2013-02-23 07:01:00,3.0,0.0,-100.00,West,260,1.0,3.0,87,0.00,,,-99.99,,2013-02-23 13:01:00,
2013-02-23 07:11:00,4.0,0.0,-100.00,West,260,1.0,2.0,87,0.00,,,-99.99,,2013-02-23 13:11:00,
2013-02-23 07:22:00,4.0,1.0,-100.00,West,260,2.0,3.0,87,0.00,,,-99.99,,2013-02-23 13:22:00,
2013-02-23 07:32:00,5.0,2.0,-100.00,WSW,250,1.0,2.0,87,0.00,,,-99.99,,2013-02-23 13:32:00,
2013-02-23 07:42:00,5.0,2.0,-100.00,WSW,250,1.0,2.0,87,0.00,,,-99.99,,2013-02-23 13:42:00,
2013-02-23 07:52:00,5.0,2.0,-100.00,WSW,245,1.0,2.0,87,0.00,,,-99.99,,2013-02-23 13:52:00,
2013-02-23 08:02:00,5.0,2.0,-100.00,WSW,245,1.0,2.0,87,0.00,,,-99.99,,2013-02-23 14:02:00,
2013-02-23 08:11:00,6.0,3.0,-100.00,West,275,0.0,1.0,87,0.00,,,-99.99,,2013-02-23 14:11:00,
2013-02-23 08:21:00,7.0,4.0,-100.00,West,265,1.0,1.0,87,0.00,,,-99.99,,2013-02-23 14:21:00,
2013-02-23 08:32:00,8.0,5.0,-100.00,WSW,255,3.0,3.0,87,0.00,,,-99.99,,2013-02-23 14:32:00,
2013-02-23 08:41:00,8.0,5.0,-100.00,WSW,255,3.0,3.0,87,0.00,,,-99.99,,2013-02-23 14:41:00,
2013-02-23 08:52:00,9.0,6.0,-100.00,WSW,240,7.0,7.0,86,0.00,,,-99.99,,2013-02-23 14:52:00,
2013-02-23 09:01:00,9.0,6.0,-100.00,WSW,240,7.0,7.0,86,0.00,,,-99.99,,2013-02-23 15:01:00,
2013-02-23 09:11:00,10.0,7.0,-100.00,SW,235,4.0,7.0,86,0.00,,,-99.99,,2013-02-23 15:11:00,
2013-02-23 09:21:00,11.0,7.0,-100.00,SW,235,6.0,7.0,86,0.00,,,-99.99,,2013-02-23 15:21:00,
2013-02-23 09:32:00,11.0,8.0,-100.00,WSW,240,4.0,6.0,86,0.00,,,-99.99,,2013-02-23 15:32:00,
2013-02-23 09:41:00,11.0,8.0,-100.00,WSW,240,4.0,6.0,86,0.00,,,-99.99,,2013-02-23 15:41:00,
2013-02-23 09:51:00,12.0,8.0,-100.00,WSW,245,6.0,6.0,86,0.00,,,-99.99,,2013-02-23 15:51:00,
2013-02-23 10:01:00,12.0,8.0,-100.00,WSW,245,6.0,6.0,86,0.00,,,-99.99,,2013-02-23 16:01:00,
2013-02-23 10:11:00,13.0,9.0,-100.00,WSW,240,6.0,6.0,85,0.00,,,-99.99,,2013-02-23 16:11:00,
2013-02-23 10:21:00,13.0,10.0,-100.00,WSW,240,6.0,6.0,85,0.00,,,-99.99,,2013-02-23 16:21:00,
2013-02-23 10:31:00,17.0,13.0,-100.00,WSW,245,4.0,6.0,83,0.00,,,-99.99,,2013-02-23 16:31:00,
2013-02-23 10:42:00,17.0,13.0,-100.00,WSW,245,4.0,6.0,83,0.00,,,-99.99,,2013-02-23 16:42:00,
2013-02-23 10:51:00,24.0,18.0,-100.00,SSE,155,1.0,2.0,78,0.00,,,-99.99,,2013-02-23 16:51:00,
2013-02-23 11:01:00,24.0,18.0,-100.00,SSE,155,1.0,2.0,78,0.00,,,-99.99,,2013-02-23 17:01:00,
2013-02-23 11:11:00,26.0,18.0,-100.00,SSE,155,1.0,2.0,71,0.00,,,-99.99,,2013-02-23 17:11:00,
2013-02-23 11:21:00,28.0,18.0,-100.00,SSW,200,2.0,3.0,64,0.00,,,-99.99,,2013-02-23 17:21:00,
2013-02-23 11:31:00,29.0,14.0,-100.00,SSW,200,4.0,5.0,53,0.00,,,-99.99,,2013-02-23 17:31:00,
2013-02-23 11:52:00,30.0,14.0,-100.00,SSE,150,1.0,4.0,50,0.00,,,-99.99,,2013-02-23 17:52:00,
2013-02-23 12:01:00,30.0,14.0,-100.00,SSE,150,1.0,4.0,50,0.00,,,-99.99,,2013-02-23 18:01:00,
2013-02-23 12:12:00,33.0,16.0,-100.00,SSW,205,2.0,3.0,48,0.00,,,-99.99,,2013-02-23 18:12:00,
2013-02-23 12:21:00,33.0,15.0,-100.00,SSE,165,2.0,4.0,46,0.00,,,-99.99,,2013-02-23 18:21:00,
2013-02-23 12:32:00,33.0,14.0,-100.00,South,180,4.0,4.0,44,0.00,,,-99.99,,2013-02-23 18:32:00,
2013-02-23 12:51:00,32.0,14.0,-100.00,South,175,3.0,4.0,46,0.00,,,-99.99,,2013-02-23 18:51:00,
2013-02-23 13:01:00,32.0,14.0,-100.00,South,175,3.0,4.0,46,0.00,,,-99.99,,2013-02-23 19:01:00,
2013-02-23 13:11:00,33.0,14.0,-100.00,SSE,165,3.0,4.0,45,0.00,,,-99.99,,2013-02-23 19:11:00,
2013-02-23 13:21:00,31.0,13.0,-100.00,SSE,155,3.0,4.0,45,0.00,,,-99.99,,2013-02-23 19:21:00,
2013-02-23 13:32:00,34.0,16.0,-100.00,South,175,2.0,3.0,47,0.00,,,-99.99,,2013-02-23 19:32:00,
2013-02-23 13:51:00,31.0,13.0,-100.00,South,180,6.0,7.0,46,0.00,,,-99.99,,2013-02-23 19:51:00,
2013-02-23 14:01:00,31.0,13.0,-100.00,South,180,6.0,7.0,46,0.00,,,-99.99,,2013-02-23 20:01:00,
2013-02-23 14:11:00,32.0,14.0,-100.00,South,170,4.0,6.0,46,0.00,,,-99.99,,2013-02-23 20:11:00,
2013-02-23 14:21:00,33.0,15.0,-100.00,South,175,3.0,6.0,46,0.00,,,-99.99,,2013-02-23 20:21:00,
2013-02-23 14:32:00,36.0,17.0,-100.00,South,175,1.0,2.0,46,0.00,,,-99.99,,2013-02-23 20:32:00,
2013-02-23 14:52:00,37.0,17.0,-100.00,South,185,2.0,4.0,43,0.00,,,-99.99,,2013-02-23 20:52:00,
2013-02-23 15:01:00,37.0,17.0,-100.00,South,185,2.0,4.0,43,0.00,,,-99.99,,2013-02-23 21:01:00,
2013-02-23 15:11:00,37.0,17.0,-100.00,SSE,150,2.0,4.0,42,0.00,,,-99.99,,2013-02-23 21:11:00,
2013-02-23 15:22:00,33.0,14.0,-100.00,SE,145,3.0,4.0,44,0.00,,,-99.99,,2013-02-23 21:22:00,
2013-02-23 15:31:00,28.0,13.0,-100.00,East,90,6.0,8.0,53,0.00,,,-99.99,,2013-02-23 21:31:00,
2013-02-23 15:41:00,28.0,13.0,-100.00,East,90,6.0,8.0,53,0.00,,,-99.99,,2013-02-23 21:41:00,
2013-02-23 15:51:00,28.0,14.0,-100.00,East,90,6.0,7.0,54,0.00,,,-99.99,,2013-02-23 21:51:00,
2013-02-23 16:01:00,28.0,14.0,-100.00,East,90,6.0,7.0,54,0.00,,,-99.99,,2013-02-23 22:01:00,
2013-02-23 16:11:00,27.0,14.0,-100.00,East,90,7.0,10.0,57,0.00,,,-99.99,,2013-02-23 22:11:00,
2013-02-23 16:21:00,27.0,15.0,-100.00,East,90,7.0,9.0,59,0.00,,,-99.99,,2013-02-23 22:21:00,
2013-02-23 16:31:00,27.0,15.0,-100.00,East,90,6.0,7.0,61,0.00,,,-99.99,,2013-02-23 22:31:00,
2013-02-23 16:41:00,27.0,15.0,-100.00,East,90,6.0,7.0,61,0.00,,,-99.99,,2013-02-23 22:41:00,
2013-02-23 16:51:00,26.0,15.0,-100.00,ESE,110,6.0,9.0,64,0.00,,,-99.99,,2013-02-23 22:51:00,
2013-02-23 17:01:00,26.0,15.0,-100.00,ESE,110,6.0,9.0,64,0.00,,,-99.99,,2013-02-23 23:01:00,
2013-02-23 17:11:00,25.0,15.0,-100.00,ESE,110,6.0,9.0,65,0.00,,,-99.99,,2013-02-23 23:11:00,
2013-02-23 17:21:00,24.0,14.0,-100.00,SE,125,7.0,9.0,66,0.00,,,-99.99,,2013-02-23 23:21:00,
2013-02-23 17:31:00,23.0,14.0,-100.00,ESE,115,6.0,9.0,68,0.00,,,-99.99,,2013-02-23 23:31:00,
2013-02-23 17:41:00,23.0,14.0,-100.00,ESE,115,6.0,9.0,68,0.00,,,-99.99,,2013-02-23 23:41:00,
2013-02-23 17:52:00,21.0,13.0,-100.00,East,95,5.0,9.0,71,0.00,,,-99.99,,2013-02-23 23:52:00,
2013-02-23 18:01:00,21.0,13.0,-100.00,East,95,5.0,9.0,71,0.00,,,-99.99,,2013-02-24 00:01:00,
2013-02-23 18:11:00,20.0,13.0,-100.00,East,100,5.0,9.0,73,0.00,,,-99.99,,2013-02-24 00:11:00,
2013-02-23 18:22:00,19.0,13.0,-100.00,East,85,6.0,7.0,75,0.00,,,-99.99,,2013-02-24 00:22:00,
2013-02-23 18:32:00,18.0,12.0,-100.00,ESE,120,4.0,7.0,78,0.00,,,-99.99,,2013-02-24 00:32:00,
2013-02-23 18:42:00,18.0,12.0,-100.00,ESE,120,4.0,7.0,78,0.00,,,-99.99,,2013-02-24 00:42:00,
2013-02-23 18:52:00,17.0,12.0,-100.00,ESE,110,6.0,9.0,80,0.00,,,-99.99,,2013-02-24 00:52:00,
2013-02-23 19:01:00,17.0,12.0,-100.00,ESE,110,6.0,9.0,80,0.00,,,-99.99,,2013-02-24 01:01:00,
2013-02-23 19:11:00,17.0,12.0,-100.00,ESE,105,6.0,7.0,81,0.00,,,-99.99,,2013-02-24 01:11:00,
2013-02-23 19:22:00,17.0,12.0,-100.00,East,100,4.0,9.0,82,0.00,,,-99.99,,2013-02-24 01:22:00,
2013-02-23 19:31:00,16.0,12.0,-100.00,East,80,4.0,6.0,84,0.00,,,-99.99,,2013-02-24 01:31:00,
2013-02-23 19:41:00,16.0,12.0,-100.00,East,80,4.0,6.0,84,0.00,,,-99.99,,2013-02-24 01:41:00,
2013-02-23 19:51:00,15.0,12.0,-100.00,East,90,4.0,7.0,86,0.00,,,-99.99,,2013-02-24 01:51:00,
2013-02-23 20:01:00,15.0,12.0,-100.00,East,90,4.0,7.0,86,0.00,,,-99.99,,2013-02-24 02:01:00,
2013-02-23 20:11:00,15.0,12.0,-100.00,East,80,5.0,6.0,87,0.00,,,-99.99,,2013-02-24 02:11:00,
2013-02-23 20:21:00,15.0,12.0,-100.00,East,85,4.0,6.0,87,0.00,,,-99.99,,2013-02-24 02:21:00,
2013-02-23 20:32:00,13.0,11.0,-100.00,East,100,4.0,5.0,88,0.00,,,-99.99,,2013-02-24 02:32:00,
2013-02-23 20:41:00,13.0,11.0,-100.00,East,100,4.0,5.0,88,0.00,,,-99.99,,2013-02-24 02:41:00,
2013-02-23 20:52:00,14.0,12.0,-100.00,East,100,4.0,6.0,89,0.00,,,-99.99,,2013-02-24 02:52:00,
2013-02-23 21:01:00,14.0,12.0,-100.00,East,100,4.0,6.0,89,0.00,,,-99.99,,2013-02-24 03:01:00,
2013-02-23 21:11:00,14.0,12.0,-100.00,ESE,120,4.0,5.0,89,0.00,,,-99.99,,2013-02-24 03:11:00,
2013-02-23 21:21:00,13.0,11.0,-100.00,SE,135,3.0,4.0,89,0.00,,,-99.99,,2013-02-24 03:21:00,
2013-02-23 21:32:00,13.0,11.0,-100.00,East,90,3.0,4.0,90,0.00,,,-99.99,,2013-02-24 03:32:00,
2013-02-23 21:42:00,13.0,11.0,-100.00,East,90,3.0,4.0,90,0.00,,,-99.99,,2013-02-24 03:42:00,
2013-02-23 21:52:00,12.0,9.0,-100.00,ENE,70,6.0,7.0,90,0.00,,,-99.99,,2013-02-24 03:52:00,
2013-02-23 22:01:00,12.0,9.0,-100.00,ENE,70,6.0,7.0,90,0.00,,,-99.99,,2013-02-24 04:01:00,
2013-02-23 22:11:00,12.0,10.0,-100.00,ENE,60,4.0,7.0,90,0.00,,,-99.99,,2013-02-24 04:11:00,
2013-02-23 22:21:00,12.0,10.0,-100.00,NE,55,3.0,6.0,90,0.00,,,-99.99,,2013-02-24 04:21:00,
2013-02-23 22:31:00,11.0,9.0,-100.00,ENE,70,5.0,7.0,90,0.00,,,-99.99,,2013-02-24 04:31:00,
2013-02-23 22:41:00,11.0,9.0,-100.00,ENE,70,5.0,7.0,90,0.00,,,-99.99,,2013-02-24 04:41:00,
2013-02-23 22:51:00,11.0,9.0,-100.00,ENE,70,4.0,6.0,90,0.00,,,-99.99,,2013-02-24 04:51:00,
2013-02-23 23:01:00,11.0,9.0,-100.00,ENE,70,4.0,6.0,90,0.00,,,-99.99,,2013-02-24 05:01:00,
2013-02-23 23:11:00,11.0,9.0,-100.00,ENE,60,4.0,6.0,90,0.00,,,-99.99,,2013-02-24 05:11:00,
2013-02-23 23:22:00,10.0,8.0,-100.00,ENE,65,3.0,5.0,90,0.00,,,-99.99,,2013-02-24 05:22:00,
2013-02-23 23:32:00,11.0,9.0,-100.00,East,85,4.0,7.0,90,0.00,,,-99.99,,2013-02-24 05:32:00,
2013-02-23 23:42:00,11.0,9.0,-100.00,East,85,4.0,7.0,90,0.00,,,-99.99,,2013-02-24 05:42:00,
2013-02-23 23:52:00,10.0,8.0,-100.00,East,85,4.0,5.0,90,0.00,,,-99.99,,2013-02-24 05:52:00,